sensor_id;sensor_type;location;lat;lon;timestamp;temperature;humidity
34768;DHT22;21755;43.608;1.236;2023-01-15T00:02:09;6.10;99.90
34768;DHT22;21755;43.608;1.236;2023-01-15T00:04:37;5.90;99.90
34768;DHT22;21755;43.608;1.236;2023-01-15T00:07:03;5.90;99.90
34768;DHT22;21755;43.608;1.236;2023-01-15T00:09:29;5.90;99.90
34768;DHT22;21755;43.608;1.236;2023-01-15T00:11:55;6.00;99.90
34768;DHT22;21755;43.608;1.236;2023-01-15T00:14:21;6.00;99.90
34768;DHT22;21755;43.608;1.236;2023-01-15T00:16:50;6.00;99.90
34768;DHT22;21755;43.608;1.236;2023-01-15T00:19:17;5.90;99.90
34768;DHT22;21755;43.608;1.236;2023-01-15T00:21:42;5.80;99.90
34768;DHT22;21755;43.608;1.236;2023-01-15T00:24:08;5.80;99.90
34768;DHT22;21755;43.608;1.236;2023-01-15T00:26:52;5.80;99.90
34768;DHT22;21755;43.608;1.236;2023-01-15T00:29:36;5.90;99.90
34768;DHT22;21755;43.608;1.236;2023-01-15T00:32:05;5.80;99.90
34768;DHT22;21755;43.608;1.236;2023-01-15T00:34:32;5.80;99.90
34768;DHT22;21755;43.608;1.236;2023-01-15T00:36:58;5.80;99.90
34768;DHT22;21755;43.608;1.236;2023-01-15T00:39:24;5.80;99.90
34768;DHT22;21755;43.608;1.236;2023-01-15T00:41:51;5.80;99.90
34768;DHT22;21755;43.608;1.236;2023-01-15T00:44:17;5.80;99.90
34768;DHT22;21755;43.608;1.236;2023-01-15T00:46:43;5.80;99.90
34768;DHT22;21755;43.608;1.236;2023-01-15T00:49:09;5.80;99.90
34768;DHT22;21755;43.608;1.236;2023-01-15T00:51:35;5.80;99.90
34768;DHT22;21755;43.608;1.236;2023-01-15T00:54:01;5.70;99.90
34768;DHT22;21755;43.608;1.236;2023-01-15T00:56:27;5.80;99.90
34768;DHT22;21755;43.608;1.236;2023-01-15T00:58:54;5.70;99.90
34768;DHT22;21755;43.608;1.236;2023-01-15T01:01:20;5.70;99.90
34768;DHT22;21755;43.608;1.236;2023-01-15T01:03:46;5.70;99.90
34768;DHT22;21755;43.608;1.236;2023-01-15T01:06:18;5.70;99.90
34768;DHT22;21755;43.608;1.236;2023-01-15T01:08:44;5.70;99.90
34768;DHT22;21755;43.608;1.236;2023-01-15T01:11:15;5.70;99.90
34768;DHT22;21755;43.608;1.236;2023-01-15T01:13:42;5.70;99.90
34768;DHT22;21755;43.608;1.236;2023-01-15T01:16:36;5.70;99.90
34768;DHT22;21755;43.608;1.236;2023-01-15T01:19:07;5.70;99.90
34768;DHT22;21755;43.608;1.236;2023-01-15T01:21:34;5.70;99.90
34768;DHT22;21755;43.608;1.236;2023-01-15T01:24:00;5.60;99.90
34768;DHT22;21755;43.608;1.236;2023-01-15T01:26:27;5.70;99.90
34768;DHT22;21755;43.608;1.236;2023-01-15T01:28:54;5.60;99.90
34768;DHT22;21755;43.608;1.236;2023-01-15T01:31:20;5.50;99.90
34768;DHT22;21755;43.608;1.236;2023-01-15T01:33:51;5.50;99.90
34768;DHT22;21755;43.608;1.236;2023-01-15T01:36:19;5.60;99.90
34768;DHT22;21755;43.608;1.236;2023-01-15T01:38:49;5.70;99.90
34768;DHT22;21755;43.608;1.236;2023-01-15T01:41:18;5.60;99.90
34768;DHT22;21755;43.608;1.236;2023-01-15T01:46:55;5.60;99.90
34768;DHT22;21755;43.608;1.236;2023-01-15T01:49:21;5.60;99.90
34768;DHT22;21755;43.608;1.236;2023-01-15T01:51:57;5.60;99.90
34768;DHT22;21755;43.608;1.236;2023-01-15T01:54:24;5.60;99.90
34768;DHT22;21755;43.608;1.236;2023-01-15T01:56:52;5.60;99.90
34768;DHT22;21755;43.608;1.236;2023-01-15T01:59:19;5.60;99.90
34768;DHT22;21755;43.608;1.236;2023-01-15T02:01:47;5.50;99.90
34768;DHT22;21755;43.608;1.236;2023-01-15T02:04:15;5.50;99.90
34768;DHT22;21755;43.608;1.236;2023-01-15T02:06:42;5.50;99.90
34768;DHT22;21755;43.608;1.236;2023-01-15T02:09:08;5.40;99.90
34768;DHT22;21755;43.608;1.236;2023-01-15T02:11:35;5.40;99.90
34768;DHT22;21755;43.608;1.236;2023-01-15T02:24:56;5.30;99.90
34768;DHT22;21755;43.608;1.236;2023-01-15T02:27:20;5.40;99.90
34768;DHT22;21755;43.608;1.236;2023-01-15T02:30:04;5.40;99.90
34768;DHT22;21755;43.608;1.236;2023-01-15T02:32:47;5.30;99.90
34768;DHT22;21755;43.608;1.236;2023-01-15T02:35:19;5.40;99.90
34768;DHT22;21755;43.608;1.236;2023-01-15T02:37:50;5.40;99.90
34768;DHT22;21755;43.608;1.236;2023-01-15T02:40:19;5.40;99.90
34768;DHT22;21755;43.608;1.236;2023-01-15T02:42:47;5.40;99.90
34768;DHT22;21755;43.608;1.236;2023-01-15T02:45:22;5.40;99.90
34768;DHT22;21755;43.608;1.236;2023-01-15T02:47:57;5.40;99.90
34768;DHT22;21755;43.608;1.236;2023-01-15T02:50:30;5.30;99.90
34768;DHT22;21755;43.608;1.236;2023-01-15T02:53:02;5.30;99.90
34768;DHT22;21755;43.608;1.236;2023-01-15T02:55:38;5.30;99.90
34768;DHT22;21755;43.608;1.236;2023-01-15T02:58:09;5.30;99.90
34768;DHT22;21755;43.608;1.236;2023-01-15T03:00:38;5.30;99.90
34768;DHT22;21755;43.608;1.236;2023-01-15T03:03:12;5.20;99.90
34768;DHT22;21755;43.608;1.236;2023-01-15T03:05:44;5.20;99.90
34768;DHT22;21755;43.608;1.236;2023-01-15T03:08:13;5.20;99.90
34768;DHT22;21755;43.608;1.236;2023-01-15T03:11:01;5.20;99.90
34768;DHT22;21755;43.608;1.236;2023-01-15T03:19:26;5.20;99.90
34768;DHT22;21755;43.608;1.236;2023-01-15T03:22:19;5.10;99.90
34768;DHT22;21755;43.608;1.236;2023-01-15T03:25:02;5.10;99.90
34768;DHT22;21755;43.608;1.236;2023-01-15T03:27:29;5.10;99.90
34768;DHT22;21755;43.608;1.236;2023-01-15T03:30:02;5.10;99.90
34768;DHT22;21755;43.608;1.236;2023-01-15T03:32:29;5.00;99.90
34768;DHT22;21755;43.608;1.236;2023-01-15T03:34:56;5.00;99.90
34768;DHT22;21755;43.608;1.236;2023-01-15T03:37:23;5.00;99.90
34768;DHT22;21755;43.608;1.236;2023-01-15T03:39:50;5.00;99.90
34768;DHT22;21755;43.608;1.236;2023-01-15T03:53:20;4.90;99.90
34768;DHT22;21755;43.608;1.236;2023-01-15T03:59:03;4.90;99.90
34768;DHT22;21755;43.608;1.236;2023-01-15T04:01:37;4.90;99.90
34768;DHT22;21755;43.608;1.236;2023-01-15T04:04:05;4.80;99.90
34768;DHT22;21755;43.608;1.236;2023-01-15T04:06:34;4.80;99.90
34768;DHT22;21755;43.608;1.236;2023-01-15T04:09:02;4.80;99.90
34768;DHT22;21755;43.608;1.236;2023-01-15T04:11:30;4.80;99.90
34768;DHT22;21755;43.608;1.236;2023-01-15T04:13:55;4.70;99.90
34768;DHT22;21755;43.608;1.236;2023-01-15T04:16:29;4.60;99.90
34768;DHT22;21755;43.608;1.236;2023-01-15T04:18:56;4.70;99.90
34768;DHT22;21755;43.608;1.236;2023-01-15T04:21:22;4.60;99.90
34768;DHT22;21755;43.608;1.236;2023-01-15T04:23:48;4.60;99.90
34768;DHT22;21755;43.608;1.236;2023-01-15T04:26:14;4.50;99.90
34768;DHT22;21755;43.608;1.236;2023-01-15T04:28:40;4.60;99.90
34768;DHT22;21755;43.608;1.236;2023-01-15T04:31:06;4.50;99.90
34768;DHT22;21755;43.608;1.236;2023-01-15T04:33:32;4.60;99.90
34768;DHT22;21755;43.608;1.236;2023-01-15T04:35:59;4.60;99.90
34768;DHT22;21755;43.608;1.236;2023-01-15T04:38:25;4.60;99.90
34768;DHT22;21755;43.608;1.236;2023-01-15T04:40:51;4.60;99.90
34768;DHT22;21755;43.608;1.236;2023-01-15T04:43:36;4.60;99.90
34768;DHT22;21755;43.608;1.236;2023-01-15T04:46:21;4.60;99.90
34768;DHT22;21755;43.608;1.236;2023-01-15T04:48:47;4.70;99.90
34768;DHT22;21755;43.608;1.236;2023-01-15T04:51:13;4.70;99.90
34768;DHT22;21755;43.608;1.236;2023-01-15T04:53:39;4.70;99.90
34768;DHT22;21755;43.608;1.236;2023-01-15T04:56:05;4.90;99.90
34768;DHT22;21755;43.608;1.236;2023-01-15T04:58:32;4.90;99.90
34768;DHT22;21755;43.608;1.236;2023-01-15T05:00:58;4.90;99.90
34768;DHT22;21755;43.608;1.236;2023-01-15T05:03:29;4.90;99.90
34768;DHT22;21755;43.608;1.236;2023-01-15T05:05:55;4.90;99.90
34768;DHT22;21755;43.608;1.236;2023-01-15T05:08:25;4.90;99.90
34768;DHT22;21755;43.608;1.236;2023-01-15T05:10:51;4.90;99.90
34768;DHT22;21755;43.608;1.236;2023-01-15T05:13:17;4.90;99.90
34768;DHT22;21755;43.608;1.236;2023-01-15T05:15:43;4.80;99.90
34768;DHT22;21755;43.608;1.236;2023-01-15T05:18:11;4.80;99.90
34768;DHT22;21755;43.608;1.236;2023-01-15T05:20:43;4.80;99.90
34768;DHT22;21755;43.608;1.236;2023-01-15T05:23:09;4.80;99.90
34768;DHT22;21755;43.608;1.236;2023-01-15T05:25:37;4.80;99.90
34768;DHT22;21755;43.608;1.236;2023-01-15T05:28:03;4.70;99.90
34768;DHT22;21755;43.608;1.236;2023-01-15T05:30:29;4.70;99.90
34768;DHT22;21755;43.608;1.236;2023-01-15T05:32:55;4.70;99.90
34768;DHT22;21755;43.608;1.236;2023-01-15T05:35:21;4.60;99.90
34768;DHT22;21755;43.608;1.236;2023-01-15T05:37:47;4.60;99.90
34768;DHT22;21755;43.608;1.236;2023-01-15T05:40:13;4.50;99.90
34768;DHT22;21755;43.608;1.236;2023-01-15T05:42:39;4.50;99.90
34768;DHT22;21755;43.608;1.236;2023-01-15T05:45:05;4.40;99.90
34768;DHT22;21755;43.608;1.236;2023-01-15T05:47:31;4.40;99.90
34768;DHT22;21755;43.608;1.236;2023-01-15T05:49:57;4.50;99.90
34768;DHT22;21755;43.608;1.236;2023-01-15T05:52:23;4.50;99.90
34768;DHT22;21755;43.608;1.236;2023-01-15T05:54:48;4.60;99.90
34768;DHT22;21755;43.608;1.236;2023-01-15T05:57:15;4.60;99.90
34768;DHT22;21755;43.608;1.236;2023-01-15T05:59:41;4.60;99.90
34768;DHT22;21755;43.608;1.236;2023-01-15T06:02:06;4.70;99.90
34768;DHT22;21755;43.608;1.236;2023-01-15T06:04:32;4.70;99.90
34768;DHT22;21755;43.608;1.236;2023-01-15T06:06:58;4.90;99.90
34768;DHT22;21755;43.608;1.236;2023-01-15T06:09:25;4.90;99.90
34768;DHT22;21755;43.608;1.236;2023-01-15T06:11:52;5.00;99.90
34768;DHT22;21755;43.608;1.236;2023-01-15T06:14:19;5.00;99.90
34768;DHT22;21755;43.608;1.236;2023-01-15T06:16:45;5.00;99.90
34768;DHT22;21755;43.608;1.236;2023-01-15T06:19:12;5.10;99.90
34768;DHT22;21755;43.608;1.236;2023-01-15T06:21:39;5.10;99.90
34768;DHT22;21755;43.608;1.236;2023-01-15T06:24:06;5.20;99.90
34768;DHT22;21755;43.608;1.236;2023-01-15T06:26:32;5.80;99.90
34768;DHT22;21755;43.608;1.236;2023-01-15T06:28:58;6.30;99.90
34768;DHT22;21755;43.608;1.236;2023-01-15T06:31:24;7.00;99.90
34768;DHT22;21755;43.608;1.236;2023-01-15T06:33:53;7.50;99.90
34768;DHT22;21755;43.608;1.236;2023-01-15T06:36:21;7.90;99.90
34768;DHT22;21755;43.608;1.236;2023-01-15T06:38:48;7.90;99.90
34768;DHT22;21755;43.608;1.236;2023-01-15T06:41:17;8.00;99.90
34768;DHT22;21755;43.608;1.236;2023-01-15T06:44:02;8.10;99.90
34768;DHT22;21755;43.608;1.236;2023-01-15T06:46:48;8.10;99.90
34768;DHT22;21755;43.608;1.236;2023-01-15T06:49:34;7.90;99.90
34768;DHT22;21755;43.608;1.236;2023-01-15T06:52:01;7.90;99.90
34768;DHT22;21755;43.608;1.236;2023-01-15T06:54:27;7.70;99.90
34768;DHT22;21755;43.608;1.236;2023-01-15T06:56:53;7.70;99.90
34768;DHT22;21755;43.608;1.236;2023-01-15T06:59:19;7.60;99.90
34768;DHT22;21755;43.608;1.236;2023-01-15T07:01:45;7.50;99.90
34768;DHT22;21755;43.608;1.236;2023-01-15T07:04:11;7.50;99.90
34768;DHT22;21755;43.608;1.236;2023-01-15T07:06:37;7.70;99.90
34768;DHT22;21755;43.608;1.236;2023-01-15T07:09:03;7.90;99.90
34768;DHT22;21755;43.608;1.236;2023-01-15T07:11:29;8.10;99.90
34768;DHT22;21755;43.608;1.236;2023-01-15T07:13:55;8.20;99.90
34768;DHT22;21755;43.608;1.236;2023-01-15T07:16:34;8.20;99.90
34768;DHT22;21755;43.608;1.236;2023-01-15T07:19:01;8.20;99.90
34768;DHT22;21755;43.608;1.236;2023-01-15T07:21:27;8.10;99.90
34768;DHT22;21755;43.608;1.236;2023-01-15T07:23:54;8.10;99.90
34768;DHT22;21755;43.608;1.236;2023-01-15T07:26:20;8.00;99.90
34768;DHT22;21755;43.608;1.236;2023-01-15T07:28:45;7.90;99.90
34768;DHT22;21755;43.608;1.236;2023-01-15T07:31:11;7.90;99.90
34768;DHT22;21755;43.608;1.236;2023-01-15T07:33:37;7.90;99.90
34768;DHT22;21755;43.608;1.236;2023-01-15T07:36:04;7.80;99.90
34768;DHT22;21755;43.608;1.236;2023-01-15T07:38:31;7.80;99.90
34768;DHT22;21755;43.608;1.236;2023-01-15T07:40:57;7.80;99.90
34768;DHT22;21755;43.608;1.236;2023-01-15T07:43:42;7.70;99.90
34768;DHT22;21755;43.608;1.236;2023-01-15T07:46:26;7.70;99.90
34768;DHT22;21755;43.608;1.236;2023-01-15T07:49:11;7.70;99.90
34768;DHT22;21755;43.608;1.236;2023-01-15T07:51:56;7.70;99.90
34768;DHT22;21755;43.608;1.236;2023-01-15T07:54:22;7.70;99.90
34768;DHT22;21755;43.608;1.236;2023-01-15T07:56:49;7.70;99.90
34768;DHT22;21755;43.608;1.236;2023-01-15T07:59:16;7.70;99.90
34768;DHT22;21755;43.608;1.236;2023-01-15T08:01:42;7.70;99.90
34768;DHT22;21755;43.608;1.236;2023-01-15T08:04:07;7.70;99.90
34768;DHT22;21755;43.608;1.236;2023-01-15T08:06:35;7.60;99.90
34768;DHT22;21755;43.608;1.236;2023-01-15T08:09:01;7.60;99.90
34768;DHT22;21755;43.608;1.236;2023-01-15T08:11:27;7.60;99.90
34768;DHT22;21755;43.608;1.236;2023-01-15T08:14:11;7.60;99.90
34768;DHT22;21755;43.608;1.236;2023-01-15T08:16:55;7.70;99.90
34768;DHT22;21755;43.608;1.236;2023-01-15T08:19:21;7.60;99.90
34768;DHT22;21755;43.608;1.236;2023-01-15T08:21:50;7.70;99.90
34768;DHT22;21755;43.608;1.236;2023-01-15T08:24:16;7.60;99.90
34768;DHT22;21755;43.608;1.236;2023-01-15T08:26:42;7.70;99.90
34768;DHT22;21755;43.608;1.236;2023-01-15T08:29:08;7.70;99.90
34768;DHT22;21755;43.608;1.236;2023-01-15T08:31:34;7.70;99.90
34768;DHT22;21755;43.608;1.236;2023-01-15T08:34:01;7.70;99.90
34768;DHT22;21755;43.608;1.236;2023-01-15T08:36:27;7.70;99.90
34768;DHT22;21755;43.608;1.236;2023-01-15T08:38:53;7.70;99.90
34768;DHT22;21755;43.608;1.236;2023-01-15T08:41:19;7.70;99.90
34768;DHT22;21755;43.608;1.236;2023-01-15T08:43:45;7.80;99.90
34768;DHT22;21755;43.608;1.236;2023-01-15T08:46:11;7.70;99.90
34768;DHT22;21755;43.608;1.236;2023-01-15T08:48:37;7.70;99.90
34768;DHT22;21755;43.608;1.236;2023-01-15T08:51:05;7.70;99.90
34768;DHT22;21755;43.608;1.236;2023-01-15T08:53:31;7.80;99.90
34768;DHT22;21755;43.608;1.236;2023-01-15T08:55:57;7.80;99.90
34768;DHT22;21755;43.608;1.236;2023-01-15T08:58:23;7.80;99.90
34768;DHT22;21755;43.608;1.236;2023-01-15T09:00:49;7.80;99.90
34768;DHT22;21755;43.608;1.236;2023-01-15T09:03:15;7.80;99.90
34768;DHT22;21755;43.608;1.236;2023-01-15T09:05:41;7.80;99.90
34768;DHT22;21755;43.608;1.236;2023-01-15T09:08:07;7.80;99.90
34768;DHT22;21755;43.608;1.236;2023-01-15T09:10:33;7.80;99.90
34768;DHT22;21755;43.608;1.236;2023-01-15T09:13:03;7.90;99.90
34768;DHT22;21755;43.608;1.236;2023-01-15T09:15:31;7.90;99.90
34768;DHT22;21755;43.608;1.236;2023-01-15T09:17:57;8.00;99.90
34768;DHT22;21755;43.608;1.236;2023-01-15T09:20:24;8.00;99.90
34768;DHT22;21755;43.608;1.236;2023-01-15T09:22:50;8.00;99.90
34768;DHT22;21755;43.608;1.236;2023-01-15T09:25:16;8.00;99.90
34768;DHT22;21755;43.608;1.236;2023-01-15T09:27:44;8.00;99.90
34768;DHT22;21755;43.608;1.236;2023-01-15T09:30:16;8.00;99.90
34768;DHT22;21755;43.608;1.236;2023-01-15T09:32:42;8.00;99.90
34768;DHT22;21755;43.608;1.236;2023-01-15T09:35:08;7.90;99.90
34768;DHT22;21755;43.608;1.236;2023-01-15T09:37:34;7.90;99.90
34768;DHT22;21755;43.608;1.236;2023-01-15T09:40:00;7.80;99.90
34768;DHT22;21755;43.608;1.236;2023-01-15T09:45:53;7.60;99.90
34768;DHT22;21755;43.608;1.236;2023-01-15T09:48:19;7.60;99.90
34768;DHT22;21755;43.608;1.236;2023-01-15T09:51:03;7.50;99.90
34768;DHT22;21755;43.608;1.236;2023-01-15T09:56:28;7.50;99.90
34768;DHT22;21755;43.608;1.236;2023-01-15T09:58:57;7.50;99.90
34768;DHT22;21755;43.608;1.236;2023-01-15T10:01:29;7.50;99.90
34768;DHT22;21755;43.608;1.236;2023-01-15T10:04:45;7.50;99.90
34768;DHT22;21755;43.608;1.236;2023-01-15T10:06:58;7.50;99.90
34768;DHT22;21755;43.608;1.236;2023-01-15T10:09:32;7.50;99.90
34768;DHT22;21755;43.608;1.236;2023-01-15T10:12:22;7.50;99.90
34768;DHT22;21755;43.608;1.236;2023-01-15T10:28:59;7.70;99.90
34768;DHT22;21755;43.608;1.236;2023-01-15T10:37:11;7.80;99.90
34768;DHT22;21755;43.608;1.236;2023-01-15T10:40:02;7.80;99.90
34768;DHT22;21755;43.608;1.236;2023-01-15T10:45:15;7.80;99.90
34768;DHT22;21755;43.608;1.236;2023-01-15T10:47:45;7.90;99.90
34768;DHT22;21755;43.608;1.236;2023-01-15T10:50:22;8.00;99.90
34768;DHT22;21755;43.608;1.236;2023-01-15T10:53:04;8.10;99.90
34768;DHT22;21755;43.608;1.236;2023-01-15T10:58:25;8.20;99.90
34768;DHT22;21755;43.608;1.236;2023-01-15T11:01:18;8.30;99.90
34768;DHT22;21755;43.608;1.236;2023-01-15T11:03:48;8.50;99.90
34768;DHT22;21755;43.608;1.236;2023-01-15T11:06:17;8.60;99.90
34768;DHT22;21755;43.608;1.236;2023-01-15T11:08:52;8.60;99.90
34768;DHT22;21755;43.608;1.236;2023-01-15T11:11:34;8.70;99.90
34768;DHT22;21755;43.608;1.236;2023-01-15T11:14:19;8.60;99.90
34768;DHT22;21755;43.608;1.236;2023-01-15T11:17:11;8.60;99.90
34768;DHT22;21755;43.608;1.236;2023-01-15T11:19:56;8.70;99.90
34768;DHT22;21755;43.608;1.236;2023-01-15T11:22:22;8.70;99.90
34768;DHT22;21755;43.608;1.236;2023-01-15T11:24:53;8.60;99.90
34768;DHT22;21755;43.608;1.236;2023-01-15T11:27:29;8.70;99.90
34768;DHT22;21755;43.608;1.236;2023-01-15T11:29:58;8.70;99.90
34768;DHT22;21755;43.608;1.236;2023-01-15T11:35:00;8.80;99.90
34768;DHT22;21755;43.608;1.236;2023-01-15T11:37:27;8.80;99.90
34768;DHT22;21755;43.608;1.236;2023-01-15T11:39:56;8.90;99.90
34768;DHT22;21755;43.608;1.236;2023-01-15T11:42:28;8.90;99.90
34768;DHT22;21755;43.608;1.236;2023-01-15T11:45:18;8.90;99.90
34768;DHT22;21755;43.608;1.236;2023-01-15T11:48:17;9.00;99.90
34768;DHT22;21755;43.608;1.236;2023-01-15T11:53:34;9.30;99.90
34768;DHT22;21755;43.608;1.236;2023-01-15T11:56:05;9.30;99.90
34768;DHT22;21755;43.608;1.236;2023-01-15T12:01:19;9.50;99.90
34768;DHT22;21755;43.608;1.236;2023-01-15T12:03:45;9.60;99.90
34768;DHT22;21755;43.608;1.236;2023-01-15T12:06:13;9.50;99.90
34768;DHT22;21755;43.608;1.236;2023-01-15T12:14:45;9.60;99.90
34768;DHT22;21755;43.608;1.236;2023-01-15T12:25:33;9.60;99.90
34768;DHT22;21755;43.608;1.236;2023-01-15T12:28:25;9.60;99.90
34768;DHT22;21755;43.608;1.236;2023-01-15T12:31:15;9.60;99.90
34768;DHT22;21755;43.608;1.236;2023-01-15T12:41:53;9.50;99.90
34768;DHT22;21755;43.608;1.236;2023-01-15T12:44:56;9.30;99.90
34768;DHT22;21755;43.608;1.236;2023-01-15T12:50:21;9.30;99.90
34768;DHT22;21755;43.608;1.236;2023-01-15T12:52:54;9.30;99.90
34768;DHT22;21755;43.608;1.236;2023-01-15T12:55:34;9.30;99.90
34768;DHT22;21755;43.608;1.236;2023-01-15T12:58:07;9.40;99.90
34768;DHT22;21755;43.608;1.236;2023-01-15T13:00:42;9.30;99.90
34768;DHT22;21755;43.608;1.236;2023-01-15T13:05:57;9.30;99.90
34768;DHT22;21755;43.608;1.236;2023-01-15T13:11:12;9.20;99.90
34768;DHT22;21755;43.608;1.236;2023-01-15T13:13:41;9.30;99.90
34768;DHT22;21755;43.608;1.236;2023-01-15T13:21:16;9.30;99.90
34768;DHT22;21755;43.608;1.236;2023-01-15T13:26:36;9.30;99.90
34768;DHT22;21755;43.608;1.236;2023-01-15T13:32:06;9.20;99.90
34768;DHT22;21755;43.608;1.236;2023-01-15T13:34:37;9.00;99.90
34768;DHT22;21755;43.608;1.236;2023-01-15T13:39:44;8.50;99.90
34768;DHT22;21755;43.608;1.236;2023-01-15T13:42:19;8.30;99.90
34768;DHT22;21755;43.608;1.236;2023-01-15T13:47:38;8.20;99.90
34768;DHT22;21755;43.608;1.236;2023-01-15T13:50:22;8.30;99.90
34768;DHT22;21755;43.608;1.236;2023-01-15T13:53:00;8.20;99.90
34768;DHT22;21755;43.608;1.236;2023-01-15T13:55:32;8.20;99.90
34768;DHT22;21755;43.608;1.236;2023-01-15T13:57:59;8.20;99.90
34768;DHT22;21755;43.608;1.236;2023-01-15T14:02:56;8.10;99.90
34768;DHT22;21755;43.608;1.236;2023-01-15T14:07:48;8.10;99.90
34768;DHT22;21755;43.608;1.236;2023-01-15T14:18:44;8.40;99.90
34768;DHT22;21755;43.608;1.236;2023-01-15T14:24:07;8.40;99.90
34768;DHT22;21755;43.608;1.236;2023-01-15T14:29:36;8.30;99.90
34768;DHT22;21755;43.608;1.236;2023-01-15T14:32:29;8.20;99.90
34768;DHT22;21755;43.608;1.236;2023-01-15T14:34:59;8.20;99.90
34768;DHT22;21755;43.608;1.236;2023-01-15T14:37:30;8.10;99.90
34768;DHT22;21755;43.608;1.236;2023-01-15T14:39:59;8.10;99.90
34768;DHT22;21755;43.608;1.236;2023-01-15T14:42:39;8.10;99.90
34768;DHT22;21755;43.608;1.236;2023-01-15T14:47:59;8.10;99.90
34768;DHT22;21755;43.608;1.236;2023-01-15T14:50:27;8.00;99.90
34768;DHT22;21755;43.608;1.236;2023-01-15T14:55:47;8.00;99.90
34768;DHT22;21755;43.608;1.236;2023-01-15T15:04:12;8.10;99.90
34768;DHT22;21755;43.608;1.236;2023-01-15T15:06:55;8.10;99.90
34768;DHT22;21755;43.608;1.236;2023-01-15T15:09:41;8.20;99.90
34768;DHT22;21755;43.608;1.236;2023-01-15T15:12:47;8.10;99.90
34768;DHT22;21755;43.608;1.236;2023-01-15T15:18:06;8.00;99.90
34768;DHT22;21755;43.608;1.236;2023-01-15T15:20:47;8.00;99.90
34768;DHT22;21755;43.608;1.236;2023-01-15T15:26:02;8.10;99.90
34768;DHT22;21755;43.608;1.236;2023-01-15T15:28:28;8.00;99.90
34768;DHT22;21755;43.608;1.236;2023-01-15T15:30:56;8.00;99.90
34768;DHT22;21755;43.608;1.236;2023-01-15T15:33:31;8.00;99.90
34768;DHT22;21755;43.608;1.236;2023-01-15T15:36:01;8.00;99.90
34768;DHT22;21755;43.608;1.236;2023-01-15T15:38:27;8.00;99.90
34768;DHT22;21755;43.608;1.236;2023-01-15T15:40:55;7.90;99.90
34768;DHT22;21755;43.608;1.236;2023-01-15T15:46:30;7.90;99.90
34768;DHT22;21755;43.608;1.236;2023-01-15T15:49:16;7.90;99.90
34768;DHT22;21755;43.608;1.236;2023-01-15T15:51:45;7.80;99.90
34768;DHT22;21755;43.608;1.236;2023-01-15T15:54:21;7.80;99.90
34768;DHT22;21755;43.608;1.236;2023-01-15T15:57:03;7.70;99.90
34768;DHT22;21755;43.608;1.236;2023-01-15T15:59:36;7.70;99.90
34768;DHT22;21755;43.608;1.236;2023-01-15T16:04:48;7.60;99.90
34768;DHT22;21755;43.608;1.236;2023-01-15T16:07:27;7.60;99.90
34768;DHT22;21755;43.608;1.236;2023-01-15T16:12:33;7.60;99.90
34768;DHT22;21755;43.608;1.236;2023-01-15T16:15:02;7.50;99.90
34768;DHT22;21755;43.608;1.236;2023-01-15T16:17:29;7.50;99.90
34768;DHT22;21755;43.608;1.236;2023-01-15T16:19:55;7.40;99.90
34768;DHT22;21755;43.608;1.236;2023-01-15T16:22:22;7.30;99.90
34768;DHT22;21755;43.608;1.236;2023-01-15T16:24:56;7.30;99.90
34768;DHT22;21755;43.608;1.236;2023-01-15T16:27:27;7.20;99.90
34768;DHT22;21755;43.608;1.236;2023-01-15T16:29:56;7.10;99.90
34768;DHT22;21755;43.608;1.236;2023-01-15T16:32:29;7.10;99.90
34768;DHT22;21755;43.608;1.236;2023-01-15T16:35:04;7.10;99.90
34768;DHT22;21755;43.608;1.236;2023-01-15T16:37:31;7.10;99.90
34768;DHT22;21755;43.608;1.236;2023-01-15T16:40:01;7.10;99.90
34768;DHT22;21755;43.608;1.236;2023-01-15T16:42:35;7.10;99.90
34768;DHT22;21755;43.608;1.236;2023-01-15T16:45:25;7.00;99.90
34768;DHT22;21755;43.608;1.236;2023-01-15T16:50:50;7.00;99.90
34768;DHT22;21755;43.608;1.236;2023-01-15T16:53:38;7.00;99.90
34768;DHT22;21755;43.608;1.236;2023-01-15T16:56:05;6.90;99.90
34768;DHT22;21755;43.608;1.236;2023-01-15T16:58:48;6.90;99.90
34768;DHT22;21755;43.608;1.236;2023-01-15T17:01:38;6.90;99.90
34768;DHT22;21755;43.608;1.236;2023-01-15T17:09:49;6.60;99.90
34768;DHT22;21755;43.608;1.236;2023-01-15T17:12:28;6.60;99.90
34768;DHT22;21755;43.608;1.236;2023-01-15T17:15:28;6.60;99.90
34768;DHT22;21755;43.608;1.236;2023-01-15T17:17:55;6.50;99.90
34768;DHT22;21755;43.608;1.236;2023-01-15T17:20:22;6.50;99.90
34768;DHT22;21755;43.608;1.236;2023-01-15T17:22:53;6.50;99.90
34768;DHT22;21755;43.608;1.236;2023-01-15T17:25:25;6.50;99.90
34768;DHT22;21755;43.608;1.236;2023-01-15T17:27:52;6.50;99.90
34768;DHT22;21755;43.608;1.236;2023-01-15T17:30:19;6.50;99.90
34768;DHT22;21755;43.608;1.236;2023-01-15T17:32:45;6.50;99.90
34768;DHT22;21755;43.608;1.236;2023-01-15T17:37:47;6.40;99.90
34768;DHT22;21755;43.608;1.236;2023-01-15T17:40:14;6.30;99.90
34768;DHT22;21755;43.608;1.236;2023-01-15T17:42:39;6.30;99.90
34768;DHT22;21755;43.608;1.236;2023-01-15T17:45:06;6.20;99.90
34768;DHT22;21755;43.608;1.236;2023-01-15T17:47:31;6.30;99.90
34768;DHT22;21755;43.608;1.236;2023-01-15T17:49:57;6.30;99.90
34768;DHT22;21755;43.608;1.236;2023-01-15T17:52:23;6.20;99.90
34768;DHT22;21755;43.608;1.236;2023-01-15T17:54:49;6.10;99.90
34768;DHT22;21755;43.608;1.236;2023-01-15T17:57:38;6.00;99.90
34768;DHT22;21755;43.608;1.236;2023-01-15T18:00:22;5.90;99.90
34768;DHT22;21755;43.608;1.236;2023-01-15T18:03:13;5.80;99.90
34768;DHT22;21755;43.608;1.236;2023-01-15T18:05:59;5.80;99.90
34768;DHT22;21755;43.608;1.236;2023-01-15T18:08:24;5.70;99.90
34768;DHT22;21755;43.608;1.236;2023-01-15T18:10:50;5.70;99.90
34768;DHT22;21755;43.608;1.236;2023-01-15T18:13:16;5.60;99.90
34768;DHT22;21755;43.608;1.236;2023-01-15T18:15:42;5.60;99.90
34768;DHT22;21755;43.608;1.236;2023-01-15T18:18:08;5.50;99.90
34768;DHT22;21755;43.608;1.236;2023-01-15T18:20:35;5.50;99.90
34768;DHT22;21755;43.608;1.236;2023-01-15T18:23:01;5.50;99.90
34768;DHT22;21755;43.608;1.236;2023-01-15T18:25:27;5.50;99.90
34768;DHT22;21755;43.608;1.236;2023-01-15T18:27:53;5.50;99.90
34768;DHT22;21755;43.608;1.236;2023-01-15T18:30:19;5.50;99.90
34768;DHT22;21755;43.608;1.236;2023-01-15T18:32:45;5.40;99.90
34768;DHT22;21755;43.608;1.236;2023-01-15T18:35:11;5.40;99.90
34768;DHT22;21755;43.608;1.236;2023-01-15T18:37:38;5.50;99.90
34768;DHT22;21755;43.608;1.236;2023-01-15T18:40:04;5.50;99.90
34768;DHT22;21755;43.608;1.236;2023-01-15T18:42:30;5.50;99.90
34768;DHT22;21755;43.608;1.236;2023-01-15T18:45:15;5.50;99.90
34768;DHT22;21755;43.608;1.236;2023-01-15T18:48:02;5.50;99.90
34768;DHT22;21755;43.608;1.236;2023-01-15T18:50:28;5.50;99.90
34768;DHT22;21755;43.608;1.236;2023-01-15T18:52:54;5.50;99.90
34768;DHT22;21755;43.608;1.236;2023-01-15T18:55:22;5.50;99.90
34768;DHT22;21755;43.608;1.236;2023-01-15T18:57:51;5.50;99.90
34768;DHT22;21755;43.608;1.236;2023-01-15T19:00:19;5.50;99.90
34768;DHT22;21755;43.608;1.236;2023-01-15T19:02:45;5.50;99.90
34768;DHT22;21755;43.608;1.236;2023-01-15T19:05:11;5.40;99.90